Elmer City, Washington
Current Conditions -  °F | °C
As of 1:00 PM on Tuesday 27 Jan 2015 (Local Time) from KOMK Reporting Station
Overcast Overcast  
Wind Chill: 36°   Ceiling: 600
Heat Index: 36°   Visibility: 10mi
Dew Point: 33°   Wind: 0mph
Humidity: 89%   Direction: NA
Pressure: 30.04"   Gusts: NA
Location:  48°N, 118.95°W
Report Text: KOMK 272100Z AUTO 00000KT 10SM BKN006 OVC019 02/01 A3004 RMK AO2 T00220006
Loading
Personal Weather Stations






























Interactive Weather Map New forecast layout! Learn more

10-Day Weather Forecast

Advertisements
Track Severe Weather on mobile